LLBGLLSD

Guest
Details From LLBG - Tel Aviv Ben Gurion
To LLSD - Sde Dov
Flight Number -
Tags generated
Created
Modified
Stats Distance 8 nm / 15 km
Max Altitude 100 ft / 30 m
Waypoints 3
Social Downloads 0
Likes 0
Share VATSIM

Download

Looking for another format? Having issues loading an existing format? Contact us
Advertisement - Login to hide

Notes

Basic altitude profile: - Ascent Rate: 2500ft/min - Ascent Speed: 250kts - Cruise Altitude: 3000ft - Cruise Speed: 420kts - Descent Rate: 1500ft/min - Descent Speed: 250kts Options: - Use NATs: yes - Use PACOTS: yes - Use low airways: yes - Use high airways: yes

Route

LLBG BGN LLSD

ID Type Via Altitude (ft/m) Position (lat/lon) Dist (leg/tot) Name
O LLBG APT - 0 / 0 32.01147 / 34.88506 - / 0 nm Tel Aviv Ben Gurion
BGN VOR - 100 / 30 32.01311 / 34.87523 0 / 0 nm BEN GURION VOR-DME
O LLSD APT - 0 / 0 32.11466 / 34.78224 7 / 8 nm Sde Dov

Altitude Profile

Advertisement - Login to hide

LLBG

Details ICAO LLBG (TLV)
Name Tel Aviv Ben Gurion
Region Israel
Timezone Asia/Jerusalem (UTC+2.0)
Stats Elevation 133 ft / 41 m (AMSL)
Location 32.009800° 34.883900°
Runways 3
Magnetic Variation 4.768° E

METAR

LLBG 140220Z VRB02KT CAVOK 10/06 Q1025 NOSIG

Decode

TAF

TAF LLBG 132302Z 1400/1424 10005KT CAVOK BECMG 1409/1411 02006KT BECMG 1416/1418 VRB04KT TX21/1411Z TN09/1404Z

Decode

Departure Runways

ID Width Length Bearing (true/mag) Surface Threshold Overrun Markings Lighting
03 197 ft / 60 m 9,119 ft / 2,780 m 28.69° / 23.92° ASPHALT 0 ft / 0 m 883 ft / 269 m PREC-APP CENTERLINE EDGE THRESHOLD MALSF
08 148 ft / 45 m 13,340 ft / 4,066 m 79.76° / 74.99° ASPHALT 1,312 ft / 400 m 978 ft / 298 m PREC-APP CENTERLINE EDGE THRESHOLD MALSF
12 148 ft / 45 m 10,219 ft / 3,115 m 121.57° / 116.80° ASPHALT 0 ft / 0 m 994 ft / 303 m PREC-APP CENTERLINE EDGE THRESHOLD MALSF
21 197 ft / 60 m 9,119 ft / 2,780 m 208.70° / 203.93° ASPHALT 0 ft / 0 m 955 ft / 291 m PREC-APP CENTERLINE EDGE THRESHOLD MALSF
26 148 ft / 45 m 13,340 ft / 4,066 m 259.78° / 255.01° ASPHALT 1,982 ft / 604 m 194 ft / 59 m PREC-APP CENTERLINE EDGE THRESHOLD MALSF
30 148 ft / 45 m 10,219 ft / 3,115 m 301.59° / 296.82° ASPHALT 279 ft / 85 m 702 ft / 214 m PREC-APP CENTERLINE EDGE THRESHOLD MALSF

LLSD

Details ICAO LLSD (SDV)
Name Sde Dov
Region Israel
Timezone Asia/Jerusalem (UTC+2.0)
Stats Elevation 43 ft / 13 m (AMSL)
Location 32.114700° 34.782200°
Runways 1
Magnetic Variation 4.779° E

METAR

Not found

TAF

TAF LLSD 132313Z 1400/1424 09006KT CAVOK BECMG 1408/1410 01010KT BECMG 1419/1421 VRB04KT TX21/1411Z TN11/1404Z

Decode

Destination Runways

ID Width Length Bearing (true/mag) Surface Threshold Overrun Markings Lighting
03 98 ft / 30 m 5,704 ft / 1,738 m 27.61° / 22.83° ASPHALT 341 ft / 104 m 0 ft / 0 m APP EDGE THRESHOLD
21 98 ft / 30 m 5,704 ft / 1,738 m 207.61° / 202.84° ASPHALT 230 ft / 70 m 0 ft / 0 m APP EDGE THRESHOLD

Popular Alternatives